Time;durP1;ratioP1;P1;durP2;ratioP2;P2;SDS_P1;SDS_P2;PMS_P1;PMS_P2;Temp;Humidity;BMP_temperature;BMP_pressure;BME280_temperature;BME280_humidity;BME280_pressure;Samples;Min_cycle;Max_cycle;Signal;HPM_P1;HPM_P2
2022/08/05 00:02:07;;;;;;;4.90;4.40;;;22.50;99.90;;;;;;5051717;28;20935;-46
2022/08/05 00:04:34;;;;;;;4.27;3.70;;;22.50;99.90;;;;;;5052363;28;20437;-45
2022/08/05 00:07:01;;;;;;;5.13;3.87;;;22.60;99.90;;;;;;5052423;28;20514;-47
2022/08/05 00:09:28;;;;;;;4.50;4.10;;;22.50;99.90;;;;;;5051940;28;20449;-48
2022/08/05 00:11:55;;;;;;;4.37;3.80;;;22.30;99.90;;;;;;5052108;28;20469;-48
2022/08/05 00:14:24;;;;;;;4.57;4.17;;;22.30;99.90;;;;;;5052050;28;20523;-47
2022/08/05 00:16:51;;;;;;;4.27;3.87;;;22.40;99.90;;;;;;5051857;28;20852;-48
2022/08/05 00:19:18;;;;;;;4.83;4.10;;;22.50;99.90;;;;;;5051579;28;20825;-48
2022/08/05 00:21:45;;;;;;;4.30;3.90;;;22.50;99.90;;;;;;5052510;28;20531;-48
2022/08/05 00:24:12;;;;;;;5.80;4.77;;;22.50;99.90;;;;;;5052039;28;20476;-45
2022/08/05 00:26:39;;;;;;;5.97;4.53;;;22.50;99.90;;;;;;5051990;28;20511;-46
2022/08/05 00:29:06;;;;;;;6.90;6.20;;;22.30;99.90;;;;;;5051625;28;20446;-46
2022/08/05 00:31:34;;;;;;;4.53;4.00;;;22.10;99.90;;;;;;5051585;28;20520;-49
2022/08/05 00:34:03;;;;;;;4.70;4.30;;;22.20;99.90;;;;;;5051850;28;20433;-45
2022/08/05 00:36:30;;;;;;;6.63;4.57;;;22.30;99.90;;;;;;5051615;28;20915;-45
2022/08/05 00:38:57;;;;;;;5.07;4.10;;;22.30;99.90;;;;;;5050949;28;20450;-47
2022/08/05 00:41:29;;;;;;;4.73;4.33;;;22.30;99.90;;;;;;5051421;28;20511;-45
2022/08/05 00:43:56;;;;;;;5.13;4.20;;;22.40;99.90;;;;;;5051387;28;20488;-46
2022/08/05 00:46:23;;;;;;;5.20;4.07;;;22.40;99.90;;;;;;5051554;28;20511;-45
2022/08/05 00:48:52;;;;;;;4.50;4.10;;;22.30;99.90;;;;;;5051295;28;20442;-45
2022/08/05 00:51:20;;;;;;;4.70;4.20;;;22.40;99.90;;;;;;5051212;28;20433;-46
2022/08/05 00:53:47;;;;;;;4.23;3.83;;;22.40;99.90;;;;;;5051356;28;20478;-45
2022/08/05 00:56:15;;;;;;;6.87;4.33;;;22.30;99.90;;;;;;5051264;28;20441;-51
2022/08/05 00:58:43;;;;;;;4.07;3.63;;;22.20;99.90;;;;;;5051429;28;20473;-43
2022/08/05 01:01:11;;;;;;;5.57;5.00;;;22.00;99.90;;;;;;5051183;28;20506;-46
2022/08/05 01:03:39;;;;;;;3.90;3.60;;;22.10;99.90;;;;;;5050416;28;20845;-45
2022/08/05 01:06:08;;;;;;;4.70;4.30;;;22.20;99.90;;;;;;5051137;28;20454;-49
2022/08/05 01:08:35;;;;;;;5.10;4.60;;;22.20;99.90;;;;;;5051295;28;20483;-51
2022/08/05 01:11:07;;;;;;;4.60;4.00;;;22.00;99.90;;;;;;5050937;28;20445;-47
2022/08/05 01:13:39;;;;;;;8.00;4.20;;;22.10;99.90;;;;;;5051126;28;20857;-47
2022/08/05 01:16:13;;;;;;;5.47;4.30;;;22.00;99.90;;;;;;5051007;28;21016;-46
2022/08/05 01:18:44;;;;;;;4.97;4.47;;;22.00;99.90;;;;;;5050755;28;20445;-45
2022/08/05 01:21:18;;;;;;;4.93;4.53;;;21.90;99.90;;;;;;5050967;28;20815;-48
2022/08/05 01:24:01;;;;;;;5.30;4.13;;;21.90;99.90;;;;;;5050635;28;20473;-47
2022/08/05 01:26:46;;;;;;;5.43;4.67;;;22.00;99.90;;;;;;5050824;28;20857;-47
2022/08/05 01:29:20;;;;;;;4.77;4.37;;;22.10;99.90;;;;;;5050340;28;20984;-46
2022/08/05 01:31:52;;;;;;;4.43;3.80;;;22.10;99.90;;;;;;5050659;28;20473;-45
2022/08/05 01:34:22;;;;;;;6.20;4.57;;;22.10;99.90;;;;;;5050758;28;20499;-47
2022/08/05 01:36:54;;;;;;;5.63;4.57;;;22.20;99.90;;;;;;5050565;28;20491;-45
2022/08/05 01:39:23;;;;;;;4.90;4.47;;;22.20;99.90;;;;;;5050252;28;20445;-49
2022/08/05 01:41:52;;;;;;;5.10;4.20;;;22.20;99.90;;;;;;5050566;28;20519;-46
2022/08/05 01:44:21;;;;;;;5.70;4.60;;;22.20;99.90;;;;;;5050164;28;20476;-48
2022/08/05 01:46:49;;;;;;;4.80;4.40;;;22.10;99.90;;;;;;5050411;28;20450;-45
2022/08/05 01:49:20;;;;;;;5.30;4.27;;;21.90;99.90;;;;;;5049627;28;20452;-45
2022/08/05 01:51:48;;;;;;;4.60;4.20;;;21.90;99.90;;;;;;5049959;28;20469;-46
2022/08/05 01:54:19;;;;;;;5.20;4.80;;;21.70;99.90;;;;;;5050131;28;20442;-50
2022/08/05 01:56:46;;;;;;;4.83;4.43;;;21.70;99.90;;;;;;5050277;28;20445;-51
2022/08/05 01:59:16;;;;;;;5.83;5.33;;;21.70;99.90;;;;;;5050198;28;20437;-46
2022/08/05 02:01:48;;;;;;;4.73;4.30;;;21.70;99.90;;;;;;5050217;28;20461;-47
2022/08/05 02:04:18;;;;;;;5.83;4.77;;;21.80;99.90;;;;;;5049430;28;20496;-48
2022/08/05 02:06:45;;;;;;;6.37;4.97;;;21.60;99.90;;;;;;5050065;28;20859;-46
2022/08/05 02:09:12;;;;;;;5.27;4.77;;;21.70;99.90;;;;;;5050191;28;20769;-47
2022/08/05 02:11:45;;;;;;;5.67;5.27;;;21.70;99.90;;;;;;5050123;28;20470;-45
2022/08/05 02:14:16;;;;;;;5.13;4.63;;;21.70;99.90;;;;;;5050044;28;20491;-46
2022/08/05 02:16:49;;;;;;;6.17;5.57;;;21.60;99.90;;;;;;5049961;28;20877;-46
2022/08/05 02:19:23;;;;;;;5.00;4.60;;;21.60;99.90;;;;;;5049691;28;20457;-45
2022/08/05 02:22:01;;;;;;;5.30;4.80;;;21.70;99.90;;;;;;5049902;28;20480;-48
2022/08/05 02:24:32;;;;;;;4.30;3.90;;;21.70;99.90;;;;;;5049587;28;20866;-46
2022/08/05 02:27:03;;;;;;;5.20;4.70;;;21.80;99.90;;;;;;5049780;28;20864;-46
2022/08/05 02:29:34;;;;;;;5.53;5.00;;;21.90;99.90;;;;;;5049590;28;20507;-46
2022/08/05 02:32:04;;;;;;;6.77;5.23;;;21.90;99.90;;;;;;5049763;28;20970;-45
2022/08/05 02:34:34;;;;;;;4.87;4.47;;;21.90;99.90;;;;;;5049964;28;20445;-48
2022/08/05 02:37:05;;;;;;;5.77;4.60;;;22.00;99.90;;;;;;5049785;28;20506;-46
2022/08/05 02:39:37;;;;;;;4.90;4.50;;;21.80;99.90;;;;;;5049409;28;20821;-49
2022/08/05 02:42:05;;;;;;;5.33;4.83;;;21.70;99.90;;;;;;5049588;28;20453;-46
2022/08/05 02:44:35;;;;;;;5.10;4.70;;;21.80;99.90;;;;;;5049346;28;20523;-45
2022/08/05 02:47:05;;;;;;;5.10;4.67;;;21.80;99.90;;;;;;5049529;28;20444;-46
2022/08/05 02:49:36;;;;;;;6.20;5.60;;;21.80;99.90;;;;;;5049221;28;20881;-47
2022/08/05 02:52:06;;;;;;;4.73;4.33;;;21.80;99.90;;;;;;5049393;28;20481;-46
2022/08/05 02:54:35;;;;;;;6.70;5.20;;;21.50;99.90;;;;;;5049705;28;20499;-47
2022/08/05 02:57:03;;;;;;;7.70;4.50;;;21.40;99.90;;;;;;5049606;28;20825;-46
2022/08/05 02:59:31;;;;;;;5.83;4.87;;;21.20;99.90;;;;;;5049341;28;20430;-46
2022/08/05 03:01:59;;;;;;;7.00;5.43;;;21.20;99.90;;;;;;5051194;28;20500;-48
2022/08/05 03:04:29;;;;;;;5.40;5.00;;;21.30;99.90;;;;;;5053231;28;20479;-47
2022/08/05 03:06:57;;;;;;;4.90;4.50;;;21.40;99.90;;;;;;5053339;28;20439;-45
2022/08/05 03:09:25;;;;;;;5.30;4.80;;;21.50;99.90;;;;;;5053493;28;20495;-47
2022/08/05 03:11:52;;;;;;;6.33;4.90;;;21.50;99.90;;;;;;5053706;28;20817;-47
2022/08/05 03:14:19;;;;;;;5.30;4.90;;;21.50;99.90;;;;;;5053230;28;20559;-45
2022/08/05 03:16:46;;;;;;;5.50;5.03;;;21.50;99.90;;;;;;5053286;28;20469;-48
2022/08/05 03:19:13;;;;;;;5.43;5.03;;;21.60;99.90;;;;;;5053162;28;20460;-46
2022/08/05 03:21:42;;;;;;;6.17;5.57;;;21.40;99.90;;;;;;5053060;28;20469;-47
2022/08/05 03:24:10;;;;;;;5.77;5.10;;;21.50;99.90;;;;;;5052898;28;20892;-45
2022/08/05 03:26:37;;;;;;;5.40;4.90;;;21.60;99.90;;;;;;5053143;28;20504;-45
2022/08/05 03:29:05;;;;;;;6.67;5.07;;;21.60;99.90;;;;;;5052774;28;20455;-46
2022/08/05 03:31:32;;;;;;;5.87;5.37;;;21.70;99.90;;;;;;5052902;28;20445;-47
2022/08/05 03:34:00;;;;;;;5.50;5.00;;;21.70;99.90;;;;;;5052904;28;20441;-46
2022/08/05 03:36:27;;;;;;;7.80;5.40;;;21.70;99.90;;;;;;5052886;28;20445;-48
2022/08/05 03:38:55;;;;;;;6.07;5.57;;;21.60;99.90;;;;;;5052612;28;20926;-45
2022/08/05 03:41:22;;;;;;;6.43;5.10;;;21.60;99.90;;;;;;5052800;28;20449;-48
2022/08/05 03:43:49;;;;;;;5.03;4.50;;;21.60;99.90;;;;;;5052575;28;20878;-47
2022/08/05 03:46:16;;;;;;;5.93;5.43;;;21.70;99.90;;;;;;5052709;28;20445;-45
2022/08/05 03:48:43;;;;;;;5.50;5.00;;;21.70;99.90;;;;;;5052438;28;20520;-47
2022/08/05 03:51:15;;;;;;;5.70;5.20;;;21.60;99.90;;;;;;5052513;28;20954;-47
2022/08/05 03:53:51;;;;;;;6.23;5.63;;;21.40;99.90;;;;;;5142435;22;20548;-48
2022/08/05 03:56:26;;;;;;;4.40;4.00;;;21.20;99.90;;;;;;5092775;28;20443;-49
2022/08/05 03:58:56;;;;;;;5.37;4.87;;;21.30;99.90;;;;;;5092491;28;20451;-48
2022/08/05 04:01:25;;;;;;;16.83;6.00;;;21.40;99.90;;;;;;5092626;28;20448;-51
2022/08/05 04:03:54;;;;;;;5.70;5.20;;;21.50;99.90;;;;;;5091954;28;20472;-51
2022/08/05 04:06:21;;;;;;;6.00;5.40;;;21.60;99.90;;;;;;5092637;28;20965;-51
2022/08/05 04:08:48;;;;;;;5.50;5.00;;;21.50;99.90;;;;;;5092275;28;20443;-55
2022/08/05 04:11:16;;;;;;;5.83;5.33;;;21.50;99.90;;;;;;5092505;28;20475;-50
2022/08/05 04:13:45;;;;;;;5.73;5.33;;;21.60;99.90;;;;;;5091471;28;20886;-49
2022/08/05 04:16:13;;;;;;;6.13;5.53;;;21.60;99.90;;;;;;5092294;28;20479;-49
2022/08/05 04:18:40;;;;;;;4.60;4.30;;;21.60;99.90;;;;;;5092092;28;20516;-49
2022/08/05 04:21:07;;;;;;;5.83;5.17;;;21.60;99.90;;;;;;5092212;28;20489;-49
2022/08/05 04:23:36;;;;;;;5.97;5.20;;;21.50;99.90;;;;;;5092058;28;20651;-51
2022/08/05 04:26:04;;;;;;;5.77;5.27;;;21.60;99.90;;;;;;5091920;28;20808;-51
2022/08/05 04:28:31;;;;;;;6.47;5.77;;;21.60;99.90;;;;;;5092120;28;20443;-51
2022/08/05 04:31:00;;;;;;;6.40;5.90;;;21.60;99.90;;;;;;5091808;28;20447;-50
2022/08/05 04:33:27;;;;;;;6.03;5.43;;;21.60;99.90;;;;;;5091810;28;20546;-49
2022/08/05 04:35:54;;;;;;;5.87;5.37;;;21.70;99.90;;;;;;5092016;28;20496;-48
2022/08/05 04:38:21;;;;;;;6.63;6.03;;;21.70;99.90;;;;;;5091874;28;20512;-54
2022/08/05 04:40:48;;;;;;;6.20;5.60;;;21.60;99.90;;;;;;5091887;28;20443;-49
2022/08/05 04:43:15;;;;;;;6.53;6.00;;;21.60;99.90;;;;;;5091726;28;20460;-49
2022/08/05 04:45:42;;;;;;;4.83;4.43;;;21.60;99.90;;;;;;5091618;28;21021;-49
2022/08/05 04:48:13;;;;;;;6.20;5.60;;;21.60;99.90;;;;;;5091855;28;20473;-50
2022/08/05 04:50:41;;;;;;;5.63;5.13;;;21.60;99.90;;;;;;5091479;28;21017;-51
2022/08/05 04:53:09;;;;;;;5.53;5.03;;;21.70;99.90;;;;;;5091588;28;20995;-53
2022/08/05 04:55:37;;;;;;;6.10;5.50;;;21.70;99.90;;;;;;5091506;28;20428;-49
2022/08/05 04:58:05;;;;;;;6.17;5.67;;;21.70;99.90;;;;;;5091548;28;20439;-53
2022/08/05 05:00:32;;;;;;;5.67;5.13;;;21.70;99.90;;;;;;5091301;28;20443;-49
2022/08/05 05:02:59;;;;;;;6.37;5.87;;;21.80;99.90;;;;;;5091215;28;20733;-50
2022/08/05 05:05:29;;;;;;;6.40;5.87;;;21.80;99.90;;;;;;5091652;28;20801;-49
2022/08/05 05:07:59;;;;;;;5.50;5.00;;;21.90;99.90;;;;;;5091200;28;20443;-51
2022/08/05 05:10:26;;;;;;;6.17;5.57;;;21.90;99.90;;;;;;5091063;28;20477;-50
2022/08/05 05:12:53;;;;;;;6.47;5.87;;;22.00;99.90;;;;;;5091194;28;20460;-49
2022/08/05 05:15:20;;;;;;;6.20;5.60;;;22.00;99.90;;;;;;5091227;28;21009;-49
2022/08/05 05:17:47;;;;;;;6.47;5.87;;;22.10;99.90;;;;;;5091471;28;20467;-50
2022/08/05 05:20:14;;;;;;;8.40;6.70;;;22.00;99.90;;;;;;5090928;28;20493;-55
2022/08/05 05:22:43;;;;;;;8.97;7.40;;;21.90;99.90;;;;;;5090871;28;20528;-53
2022/08/05 05:25:11;;;;;;;7.10;6.50;;;22.00;99.90;;;;;;5090706;28;21058;-50
2022/08/05 05:27:38;;;;;;;7.20;6.60;;;22.00;99.90;;;;;;5091208;28;20454;-49
2022/08/05 05:30:06;;;;;;;7.10;6.10;;;21.90;99.90;;;;;;5090496;28;20432;-53
2022/08/05 05:32:33;;;;;;;6.90;6.30;;;21.90;99.90;;;;;;5090878;28;20463;-50
2022/08/05 05:35:00;;;;;;;7.20;6.50;;;21.90;99.90;;;;;;5090948;28;20439;-49
2022/08/05 05:37:27;;;;;;;6.03;5.53;;;21.90;99.90;;;;;;5091290;28;20451;-49
2022/08/05 05:39:56;;;;;;;7.03;6.30;;;21.90;99.90;;;;;;5090651;28;20520;-49
2022/08/05 05:42:23;;;;;;;6.40;5.90;;;21.90;99.90;;;;;;5090773;28;20444;-50
2022/08/05 05:44:49;;;;;;;6.60;6.00;;;21.90;99.90;;;;;;5090506;28;20478;-48
2022/08/05 05:47:16;;;;;;;6.43;5.93;;;22.00;99.90;;;;;;5090544;28;20424;-51
2022/08/05 05:49:43;;;;;;;6.17;5.67;;;22.10;99.90;;;;;;5090425;28;20443;-51
2022/08/05 05:52:10;;;;;;;7.40;6.60;;;22.10;99.90;;;;;;5090351;28;20460;-52
2022/08/05 05:54:37;;;;;;;6.70;6.13;;;22.10;99.90;;;;;;5090409;28;20984;-49
2022/08/05 05:57:06;;;;;;;6.50;5.93;;;22.10;99.90;;;;;;5090546;28;20941;-49
2022/08/05 05:59:33;;;;;;;6.23;5.63;;;22.20;99.90;;;;;;5090401;28;20455;-52
2022/08/05 06:02:00;;;;;;;7.07;6.37;;;22.20;99.90;;;;;;5090024;28;20451;-51
2022/08/05 06:04:27;;;;;;;6.93;6.33;;;22.20;99.90;;;;;;5090211;28;20638;-49
2022/08/05 06:06:54;;;;;;;6.90;6.40;;;22.30;99.90;;;;;;5090180;28;20448;-52
2022/08/05 06:09:21;;;;;;;7.10;6.50;;;22.30;99.90;;;;;;5089959;28;20493;-49
2022/08/05 06:11:48;;;;;;;7.10;6.40;;;22.30;99.90;;;;;;5090437;28;20447;-52
2022/08/05 06:14:16;;;;;;;6.43;5.93;;;22.30;99.90;;;;;;5090252;28;20496;-50
2022/08/05 06:16:43;;;;;;;8.80;6.30;;;22.30;99.90;;;;;;5090088;28;20509;-51
2022/08/05 06:19:10;;;;;;;6.50;5.90;;;22.20;99.90;;;;;;5089793;28;20966;-52
2022/08/05 06:21:37;;;;;;;6.70;6.10;;;22.20;99.90;;;;;;5089837;28;20874;-50
2022/08/05 06:24:05;;;;;;;6.47;5.87;;;22.30;99.90;;;;;;5089948;28;20483;-49
2022/08/05 06:26:32;;;;;;;6.10;5.50;;;22.10;99.90;;;;;;5090059;28;20427;-49
2022/08/05 06:28:59;;;;;;;6.80;6.20;;;22.30;99.90;;;;;;5089825;28;20455;-49
2022/08/05 06:31:27;;;;;;;6.20;5.70;;;22.50;99.90;;;;;;5089997;28;20448;-49
2022/08/05 06:33:55;;;;;;;6.80;6.30;;;22.60;99.90;;;;;;5089930;28;20498;-50
2022/08/05 06:36:22;;;;;;;6.60;6.00;;;22.60;99.90;;;;;;5092852;28;20435;-48
2022/08/05 06:38:52;;;;;;;6.73;6.13;;;22.70;99.90;;;;;;5096494;28;20427;-50
2022/08/05 06:41:19;;;;;;;6.57;6.00;;;22.70;99.90;;;;;;5096701;28;20431;-49
2022/08/05 06:43:46;;;;;;;7.20;6.57;;;22.90;99.90;;;;;;5096574;28;20466;-49
2022/08/05 06:46:13;;;;;;;6.60;6.00;;;22.90;99.90;;;;;;5096815;28;20471;-50
2022/08/05 06:48:42;;;;;;;6.80;6.20;;;23.00;99.90;;;;;;5096807;28;20428;-50
2022/08/05 06:51:09;;;;;;;6.20;5.70;;;23.00;99.90;;;;;;5096545;28;20528;-49
2022/08/05 06:53:36;;;;;;;6.77;6.17;;;23.00;99.90;;;;;;5096514;28;20846;-49
2022/08/05 06:56:03;;;;;;;7.80;6.63;;;23.10;99.90;;;;;;5096502;28;20799;-50
2022/08/05 06:58:30;;;;;;;7.60;6.90;;;23.10;99.90;;;;;;5096340;28;20464;-51
2022/08/05 07:00:59;;;;;;;7.10;6.50;;;23.20;99.90;;;;;;5096235;28;20464;-50
2022/08/05 07:03:26;;;;;;;7.03;6.43;;;23.20;99.90;;;;;;5096635;28;20464;-49
2022/08/05 07:05:54;;;;;;;7.20;6.63;;;23.30;99.90;;;;;;5096303;28;20983;-50
2022/08/05 07:08:22;;;;;;;7.60;7.00;;;23.30;99.90;;;;;;5096390;28;20517;-52
2022/08/05 07:10:49;;;;;;;7.93;7.23;;;23.30;99.90;;;;;;5096156;28;20484;-50
2022/08/05 07:18:45;;;;;;;7.40;6.80;;;23.40;99.90;;;;;;5096130;28;20414;-49
2022/08/05 07:21:13;;;;;;;7.10;6.50;;;23.50;99.90;;;;;;5096349;28;20989;-55
2022/08/05 07:23:40;;;;;;;7.20;6.60;;;23.50;99.90;;;;;;5096144;28;20512;-51
2022/08/05 07:26:07;;;;;;;8.20;7.50;;;23.60;99.90;;;;;;5096046;28;20467;-49
2022/08/05 07:28:34;;;;;;;7.20;6.60;;;23.60;99.90;;;;;;5096260;28;20497;-49
2022/08/05 07:31:01;;;;;;;9.40;8.60;;;23.60;99.90;;;;;;5096066;28;20509;-49
2022/08/05 07:33:28;;;;;;;9.30;7.80;;;23.60;99.90;;;;;;5096091;28;20452;-50
2022/08/05 07:35:55;;;;;;;7.53;6.93;;;23.70;99.90;;;;;;5096216;28;20439;-48
2022/08/05 07:38:24;;;;;;;7.40;6.70;;;23.70;99.90;;;;;;5096470;28;20500;-51
2022/08/05 07:40:51;;;;;;;6.60;6.10;;;23.70;99.90;;;;;;5096038;28;20439;-49
2022/08/05 07:43:18;;;;;;;7.10;6.50;;;23.70;99.90;;;;;;5096094;28;20983;-49
2022/08/05 07:45:45;;;;;;;8.57;7.87;;;23.70;99.90;;;;;;5095891;28;20470;-49
2022/08/05 07:48:12;;;;;;;7.30;6.60;;;23.80;99.90;;;;;;5093003;28;20471;-51
2022/08/05 07:50:39;;;;;;;6.83;6.23;;;23.80;99.90;;;;;;5092768;28;20881;-49
2022/08/05 07:53:05;;;;;;;6.83;6.13;;;23.90;99.90;;;;;;5092675;28;20590;-51
2022/08/05 07:55:34;;;;;;;6.73;6.13;;;24.00;99.90;;;;;;5092689;28;20427;-49
2022/08/05 07:58:01;;;;;;;7.93;7.23;;;24.10;99.90;;;;;;5093198;28;20949;-51
2022/08/05 08:00:28;;;;;;;7.93;7.23;;;24.20;99.90;;;;;;5092473;28;20455;-51
2022/08/05 08:02:55;;;;;;;8.43;6.53;;;24.30;99.90;;;;;;5092512;28;20566;-50
2022/08/05 08:05:22;;;;;;;7.27;6.63;;;24.40;99.90;;;;;;5092481;28;20471;-49
2022/08/05 08:07:49;;;;;;;8.20;7.50;;;24.60;99.90;;;;;;5092578;28;20444;-55
2022/08/05 08:10:16;;;;;;;7.57;6.90;;;24.80;99.90;;;;;;5092264;28;20440;-49
2022/08/05 08:12:44;;;;;;;12.77;6.90;;;25.10;99.90;;;;;;5092409;28;21049;-51
2022/08/05 08:15:11;;;;;;;6.77;6.27;;;25.40;99.90;;;;;;5092438;28;20452;-53
2022/08/05 08:17:38;;;;;;;7.60;6.90;;;25.60;99.90;;;;;;5092455;28;20528;-49
2022/08/05 08:20:06;;;;;;;8.13;7.47;;;25.60;99.90;;;;;;5091978;28;21153;-49
2022/08/05 08:22:33;;;;;;;7.50;6.90;;;25.80;99.90;;;;;;5092284;28;20467;-51
2022/08/05 08:25:00;;;;;;;7.20;6.60;;;26.00;99.90;;;;;;5092525;28;20475;-50
2022/08/05 08:27:27;;;;;;;9.23;6.63;;;26.20;99.90;;;;;;5092204;28;20447;-49
2022/08/05 08:29:56;;;;;;;8.03;7.33;;;26.30;99.90;;;;;;5091860;28;20514;-52
2022/08/05 08:32:23;;;;;;;7.47;6.87;;;26.40;99.90;;;;;;5092196;28;20468;-49
2022/08/05 08:34:50;;;;;;;8.20;7.43;;;26.50;99.90;;;;;;5092096;28;20467;-52
2022/08/05 08:37:17;;;;;;;8.07;7.40;;;26.60;99.90;;;;;;5091999;28;20532;-52
2022/08/05 08:39:44;;;;;;;11.80;7.53;;;26.70;99.90;;;;;;5091890;28;20447;-49
2022/08/05 08:42:13;;;;;;;7.50;6.90;;;26.70;99.90;;;;;;5091683;28;20444;-52
2022/08/05 08:44:40;;;;;;;7.70;6.70;;;26.70;99.90;;;;;;5091821;28;20965;-51
2022/08/05 08:47:09;;;;;;;17.00;7.90;;;26.50;99.90;;;;;;5091767;28;20451;-50
2022/08/05 08:49:38;;;;;;;8.10;7.30;;;26.60;99.90;;;;;;5091437;28;20916;-49
2022/08/05 08:52:12;;;;;;;8.30;7.63;;;26.70;99.90;;;;;;5091539;28;20476;-52
2022/08/05 08:54:39;;;;;;;7.57;6.97;;;26.90;99.90;;;;;;5091865;28;20534;-49
2022/08/05 08:57:07;;;;;;;7.53;6.87;;;26.90;99.90;;;;;;5091762;28;20505;-54
2022/08/05 08:59:35;;;;;;;8.03;7.33;;;26.90;99.90;;;;;;5090922;28;21002;-51
2022/08/05 09:02:06;;;;;;;8.50;7.80;;;26.90;99.90;;;;;;5091098;28;20419;-53
2022/08/05 09:04:36;;;;;;;10.57;8.50;;;27.10;99.90;;;;;;5091682;28;20971;-49
2022/08/05 09:07:05;;;;;;;13.67;8.87;;;27.30;99.90;;;;;;5091618;28;20475;-50
2022/08/05 09:09:33;;;;;;;14.73;8.67;;;27.40;99.90;;;;;;5091175;28;21040;-52
2022/08/05 09:12:00;;;;;;;15.93;10.10;;;27.50;99.90;;;;;;5091323;28;20444;-49
2022/08/05 09:14:27;;;;;;;8.27;7.50;;;27.60;99.90;;;;;;5091253;28;20943;-51
2022/08/05 09:16:54;;;;;;;8.57;7.97;;;27.60;99.90;;;;;;5091238;28;20538;-50
2022/08/05 09:19:21;;;;;;;8.53;7.73;;;27.70;99.90;;;;;;5090900;28;20447;-50
2022/08/05 09:21:50;;;;;;;8.87;7.80;;;27.70;99.90;;;;;;5090875;28;20765;-49
2022/08/05 09:24:17;;;;;;;8.70;8.00;;;27.70;99.90;;;;;;5090902;28;20428;-51
2022/08/05 09:26:47;;;;;;;8.47;7.83;;;27.70;99.90;;;;;;5090860;28;20467;-51
2022/08/05 09:29:14;;;;;;;9.00;8.30;;;27.70;99.90;;;;;;5090769;28;20471;-50
2022/08/05 09:31:43;;;;;;;9.00;8.20;;;27.70;99.90;;;;;;5091190;28;20447;-50
2022/08/05 09:34:11;;;;;;;8.23;7.63;;;27.70;99.90;;;;;;5090868;28;20439;-50
2022/08/05 09:36:42;;;;;;;8.77;7.87;;;27.70;99.90;;;;;;5090935;28;20560;-49
2022/08/05 09:39:12;;;;;;;7.80;7.20;;;27.70;99.90;;;;;;5090613;28;20497;-49
2022/08/05 09:41:58;;;;;;;8.93;7.97;;;27.80;99.90;;;;;;5091198;28;20459;-51
2022/08/05 09:44:36;;;;;;;8.23;7.53;;;27.90;99.90;;;;;;5090733;28;20455;-51
2022/08/05 09:47:10;;;;;;;7.50;6.90;;;28.00;99.90;;;;;;5090658;28;20490;-50
2022/08/05 09:49:41;;;;;;;7.47;6.80;;;28.00;99.90;;;;;;5090417;28;20661;-49
2022/08/05 09:54:55;;;;;;;7.57;6.90;;;28.00;99.90;;;;;;5126544;22;20981;-47
2022/08/05 09:57:37;;;;;;;7.80;6.67;;;28.10;99.90;;;;;;5070205;28;20437;-48
2022/08/05 10:00:11;;;;;;;10.50;7.37;;;28.40;99.90;;;;;;5069894;28;20439;-47
2022/08/05 10:02:40;;;;;;;8.20;6.63;;;28.50;99.90;;;;;;5069978;28;20452;-48
2022/08/05 10:05:10;;;;;;;8.33;7.60;;;28.60;99.90;;;;;;5070011;28;20453;-49
2022/08/05 10:07:50;;;;;;;8.40;7.70;;;28.70;99.90;;;;;;5069947;28;20433;-46
2022/08/05 10:10:20;;;;;;;9.13;8.23;;;28.80;99.90;;;;;;5069357;28;20436;-47
2022/08/05 10:12:51;;;;;;;7.90;7.20;;;28.80;99.90;;;;;;5069490;28;20884;-49
2022/08/05 10:15:23;;;;;;;7.53;6.90;;;28.90;99.90;;;;;;5069999;28;20472;-46
2022/08/05 10:18:13;;;;;;;7.80;7.20;;;28.90;99.90;;;;;;5069993;28;20841;-54
2022/08/05 10:20:46;;;;;;;7.13;6.53;;;29.00;99.90;;;;;;5065673;28;20440;-46
2022/08/05 10:23:17;;;;;;;8.00;7.30;;;29.10;99.90;;;;;;5070056;28;20463;-50
2022/08/05 10:25:45;;;;;;;7.93;7.20;;;29.20;99.90;;;;;;5069842;28;20973;-47
2022/08/05 10:28:12;;;;;;;8.10;7.30;;;29.20;99.90;;;;;;5069801;28;20514;-48
2022/08/05 10:30:39;;;;;;;7.80;7.20;;;29.20;99.90;;;;;;5069690;28;20453;-47
2022/08/05 10:33:07;;;;;;;8.37;7.67;;;29.20;99.90;;;;;;5069804;28;20464;-45
2022/08/05 10:35:35;;;;;;;7.83;7.07;;;29.30;99.90;;;;;;5069652;28;20524;-46
2022/08/05 10:38:04;;;;;;;7.07;6.47;;;29.40;99.90;;;;;;5069789;28;20449;-48
2022/08/05 10:40:34;;;;;;;7.40;6.83;;;29.40;99.90;;;;;;5069509;28;20444;-46
2022/08/05 10:43:12;;;;;;;8.30;7.60;;;29.40;99.90;;;;;;5069661;28;20976;-46
2022/08/05 10:45:39;;;;;;;7.30;6.70;;;29.40;99.90;;;;;;5069642;28;20567;-48
2022/08/05 10:48:31;;;;;;;6.37;5.60;;;29.20;99.90;;;;;;5069794;28;21077;-48
2022/08/05 10:51:00;;;;;;;6.80;6.30;;;29.20;99.90;;;;;;5069572;28;20464;-48
2022/08/05 10:53:35;;;;;;;6.60;6.10;;;29.30;99.90;;;;;;5069763;28;20472;-46
2022/08/05 10:56:04;;;;;;;6.53;6.00;;;29.30;99.90;;;;;;5069642;28;20471;-46
2022/08/05 10:58:33;;;;;;;6.47;5.90;;;29.40;99.90;;;;;;5069543;28;20436;-50
2022/08/05 11:01:03;;;;;;;6.00;5.60;;;29.30;99.90;;;;;;5069587;28;20448;-45
2022/08/05 11:03:30;;;;;;;6.70;6.20;;;29.50;99.90;;;;;;5069131;28;20460;-50
2022/08/05 11:06:09;;;;;;;6.30;5.80;;;29.70;99.90;;;;;;5069413;28;20887;-47
2022/08/05 11:08:36;;;;;;;5.80;5.40;;;29.70;99.90;;;;;;5069468;28;20515;-53
2022/08/05 11:11:33;;;;;;;5.10;4.60;;;29.60;99.90;;;;;;5069380;28;20445;-46
2022/08/05 11:14:03;;;;;;;6.23;5.73;;;29.60;99.90;;;;;;5034723;28;20467;-49
2022/08/05 11:16:31;;;;;;;6.03;5.53;;;29.70;99.90;;;;;;5067006;28;20472;-48
2022/08/05 11:19:26;;;;;;;5.70;5.00;;;29.90;99.90;;;;;;5068489;28;20440;-49
2022/08/05 11:21:54;;;;;;;4.60;4.20;;;29.80;99.90;;;;;;5069914;28;20444;-48
2022/08/05 11:24:22;;;;;;;5.50;5.00;;;29.80;99.90;;;;;;5073030;28;20454;-47
2022/08/05 11:26:51;;;;;;;5.57;5.07;;;30.00;99.90;;;;;;5073097;28;20499;-49
2022/08/05 11:29:39;;;;;;;5.60;4.50;;;30.10;99.90;;;;;;5072207;28;20945;-47
2022/08/05 11:32:28;;;;;;;5.07;4.67;;;30.10;99.90;;;;;;5072827;28;20436;-48
2022/08/05 11:34:56;;;;;;;5.10;4.60;;;29.90;99.90;;;;;;5069893;28;20476;-45
2022/08/05 11:38:05;;;;;;;4.83;4.43;;;29.80;99.90;;;;;;5072690;28;20440;-46
2022/08/05 11:40:58;;;;;;;5.07;4.67;;;29.70;99.90;;;;;;5072512;28;20510;-51
2022/08/05 11:43:25;;;;;;;5.53;3.80;;;29.60;99.70;;;;;;5073077;28;20460;-47
2022/08/05 11:45:53;;;;;;;4.80;3.87;;;29.50;99.90;;;;;;5072587;28;20517;-46
2022/08/05 11:48:21;;;;;;;6.40;4.63;;;29.50;99.90;;;;;;5072900;28;20459;-49
2022/08/05 11:50:49;;;;;;;4.53;4.20;;;29.60;99.90;;;;;;5072218;28;20988;-46
2022/08/05 11:53:16;;;;;;;5.00;4.60;;;29.60;99.90;;;;;;5072367;28;20503;-48
2022/08/05 11:55:57;;;;;;;5.03;4.00;;;29.70;99.90;;;;;;5072288;28;20460;-47
2022/08/05 11:58:31;;;;;;;4.90;4.13;;;29.90;99.60;;;;;;5072561;28;20436;-49
2022/08/05 12:01:07;;;;;;;5.63;4.80;;;30.10;98.50;;;;;;5071427;28;20473;-48
2022/08/05 12:03:53;;;;;;;5.30;4.40;;;30.10;98.00;;;;;;5071787;28;20440;-48
2022/08/05 12:06:22;;;;;;;5.20;4.70;;;30.10;99.90;;;;;;5071800;28;20515;-48
2022/08/05 12:08:50;;;;;;;4.43;4.13;;;30.10;99.90;;;;;;5071486;28;20432;-45
2022/08/05 12:11:19;;;;;;;4.83;4.00;;;30.30;99.90;;;;;;5072503;28;20919;-46
2022/08/05 12:13:57;;;;;;;4.67;4.23;;;30.40;97.70;;;;;;5071944;28;21123;-47
2022/08/05 12:16:26;;;;;;;6.53;4.30;;;30.50;96.90;;;;;;5072179;28;20482;-47
2022/08/05 12:18:54;;;;;;;4.63;4.23;;;30.50;96.90;;;;;;5071922;28;20498;-46
2022/08/05 12:21:24;;;;;;;5.63;4.70;;;30.40;96.10;;;;;;5072049;28;20444;-50
2022/08/05 12:23:52;;;;;;;5.13;4.63;;;30.30;97.80;;;;;;5071845;28;20461;-48
2022/08/05 12:26:19;;;;;;;4.77;4.37;;;30.30;97.70;;;;;;5072238;28;20468;-47
2022/08/05 12:28:46;;;;;;;4.57;4.17;;;30.30;98.80;;;;;;5071693;28;20536;-48
2022/08/05 12:31:15;;;;;;;5.40;4.40;;;30.30;97.90;;;;;;5071838;28;20497;-48
2022/08/05 12:33:45;;;;;;;6.50;4.20;;;30.30;98.10;;;;;;5071079;28;20477;-48
2022/08/05 12:36:13;;;;;;;4.80;4.40;;;30.40;97.20;;;;;;5071720;28;20436;-49
2022/08/05 12:38:40;;;;;;;4.93;4.53;;;30.40;97.10;;;;;;5071375;28;20441;-45
2022/08/05 12:41:09;;;;;;;5.10;4.60;;;30.60;96.30;;;;;;5071671;28;20452;-46
2022/08/05 12:43:50;;;;;;;4.23;3.90;;;30.60;95.70;;;;;;5071989;28;20467;-50
2022/08/05 12:46:24;;;;;;;4.53;4.10;;;30.60;96.50;;;;;;5071562;28;20574;-47
2022/08/05 12:49:01;;;;;;;5.63;4.80;;;30.60;96.50;;;;;;5071401;28;20447;-47
2022/08/05 12:51:30;;;;;;;4.00;3.70;;;30.40;96.10;;;;;;5071403;28;20459;-48
2022/08/05 12:54:01;;;;;;;5.03;4.47;;;30.40;97.50;;;;;;5071249;28;20464;-49
2022/08/05 12:56:30;;;;;;;4.90;4.40;;;30.30;97.30;;;;;;5071284;28;20524;-48
2022/08/05 12:59:16;;;;;;;5.30;4.90;;;30.30;97.80;;;;;;5071140;28;20440;-48
2022/08/05 13:01:45;;;;;;;4.70;4.30;;;30.20;95.70;;;;;;5071158;28;20451;-48
2022/08/05 13:04:16;;;;;;;6.03;4.30;;;30.20;97.60;;;;;;5070349;28;20533;-52
2022/08/05 13:06:44;;;;;;;5.40;4.70;;;30.20;98.30;;;;;;5070221;28;20503;-50